Time;durP1;ratioP1;P1;durP2;ratioP2;P2;SDS_P1;SDS_P2;PMS_P1;PMS_P2;Temp;Humidity;BMP_temperature;BMP_pressure;BME280_temperature;BME280_humidity;BME280_pressure;Samples;Min_cycle;Max_cycle;Signal;HPM_P1;HPM_P2
2022/11/21 00:00:24;;;;;;;27.25;20.63;;;;;;;;;;1270510;23;20379;-77
2022/11/21 00:00:55;;;;;;;26.77;19.83;;;;;;;;;;1270725;23;20029;-77
2022/11/21 00:01:27;;;;;;;28.35;21.73;;;;;;;;;;1270391;23;20111;-77
2022/11/21 00:01:58;;;;;;;30.13;22.20;;;;;;;;;;1270845;23;20005;-78
2022/11/21 00:02:29;;;;;;;33.40;25.45;;;;;;;;;;1271095;23;20102;-79
2022/11/21 00:03:01;;;;;;;29.50;23.02;;;;;;;;;;1270644;23;20432;-77
2022/11/21 00:03:32;;;;;;;29.08;21.60;;;;;;;;;;1270478;23;20004;-78
2022/11/21 00:04:03;;;;;;;33.83;26.25;;;;;;;;;;1268880;23;19993;-78
2022/11/21 00:04:34;;;;;;;28.73;21.70;;;;;;;;;;1265100;23;20446;-77
2022/11/21 00:05:05;;;;;;;28.92;21.92;;;;;;;;;;1264663;23;20493;-77
2022/11/21 00:05:38;;;;;;;31.27;23.40;;;;;;;;;;1264832;23;20022;-77
2022/11/21 00:06:09;;;;;;;29.10;21.85;;;;;;;;;;1259091;23;20102;-77
2022/11/21 00:06:40;;;;;;;30.17;22.95;;;;;;;;;;1265772;23;20002;-77
2022/11/21 00:07:11;;;;;;;27.58;23.13;;;;;;;;;;1264493;23;20021;-78
2022/11/21 00:07:44;;;;;;;29.27;22.25;;;;;;;;;;1264992;23;20540;-77
2022/11/21 00:08:20;;;;;;;27.80;22.38;;;;;;;;;;1270701;23;20337;-77
2022/11/21 00:08:51;;;;;;;29.67;22.40;;;;;;;;;;1268140;23;20013;-78
2022/11/21 00:09:21;;;;;;;28.45;21.27;;;;;;;;;;1270088;23;20009;-78
2022/11/21 00:09:52;;;;;;;30.30;20.92;;;;;;;;;;1271134;23;20567;-77
2022/11/21 00:10:24;;;;;;;26.92;21.70;;;;;;;;;;1269972;23;20092;-78
2022/11/21 00:10:58;;;;;;;30.77;22.38;;;;;;;;;;1270630;23;20002;-77
2022/11/21 00:11:29;;;;;;;29.63;21.23;;;;;;;;;;1270445;23;20001;-76
2022/11/21 00:12:00;;;;;;;29.98;22.15;;;;;;;;;;1270615;23;20006;-77
2022/11/21 00:12:31;;;;;;;26.40;19.75;;;;;;;;;;1269421;23;20341;-77
2022/11/21 00:13:02;;;;;;;28.20;22.27;;;;;;;;;;1270838;23;20105;-77
2022/11/21 00:13:33;;;;;;;26.50;20.80;;;;;;;;;;1270005;23;20006;-78
2022/11/21 00:14:04;;;;;;;28.80;23.38;;;;;;;;;;1269027;23;20085;-78
2022/11/21 00:14:35;;;;;;;25.27;20.50;;;;;;;;;;1270165;23;20008;-78
2022/11/21 00:15:06;;;;;;;28.25;22.58;;;;;;;;;;1270629;23;20006;-77
2022/11/21 00:15:37;;;;;;;26.02;20.70;;;;;;;;;;1270434;23;20492;-77
2022/11/21 00:16:13;;;;;;;28.85;22.02;;;;;;;;;;1270346;23;20295;-77
2022/11/21 00:16:45;;;;;;;28.63;20.88;;;;;;;;;;1269242;23;20005;-77
2022/11/21 00:17:16;;;;;;;25.52;19.88;;;;;;;;;;1264914;23;20005;-78
2022/11/21 00:17:47;;;;;;;25.70;19.70;;;;;;;;;;1266408;23;20008;-78
2022/11/21 00:18:18;;;;;;;25.73;20.20;;;;;;;;;;1265053;23;20093;-78
2022/11/21 00:18:49;;;;;;;23.80;19.00;;;;;;;;;;1268032;23;20444;-77
2022/11/21 00:19:20;;;;;;;26.63;21.15;;;;;;;;;;1270666;23;20009;-78
2022/11/21 00:19:51;;;;;;;25.88;20.63;;;;;;;;;;1271182;23;20001;-77
2022/11/21 00:20:22;;;;;;;26.27;21.35;;;;;;;;;;1277133;23;20504;-78
2022/11/21 00:20:53;;;;;;;23.42;17.63;;;;;;;;;;1270585;23;20080;-78
2022/11/21 00:21:24;;;;;;;27.85;19.58;;;;;;;;;;1264443;23;20389;-78
2022/11/21 00:21:55;;;;;;;29.23;22.02;;;;;;;;;;1264663;23;20010;-77
2022/11/21 00:22:26;;;;;;;28.48;21.75;;;;;;;;;;1264790;23;20339;-78
2022/11/21 00:22:57;;;;;;;27.48;20.65;;;;;;;;;;1270566;23;20017;-77
2022/11/21 00:23:28;;;;;;;25.58;18.65;;;;;;;;;;1263912;23;20016;-78
2022/11/21 00:23:59;;;;;;;26.83;20.65;;;;;;;;;;1262931;23;20012;-77
2022/11/21 00:24:30;;;;;;;27.65;21.52;;;;;;;;;;1270775;23;20058;-77
2022/11/21 00:25:01;;;;;;;29.23;22.15;;;;;;;;;;1270675;23;20536;-78
2022/11/21 00:25:32;;;;;;;25.25;20.55;;;;;;;;;;1270730;23;20002;-77
2022/11/21 00:26:04;;;;;;;29.33;22.15;;;;;;;;;;1264443;23;20010;-78
2022/11/21 00:26:36;;;;;;;27.63;20.00;;;;;;;;;;1264155;23;20006;-77
2022/11/21 00:27:07;;;;;;;27.40;19.77;;;;;;;;;;1264501;23;20006;-77
2022/11/21 00:27:38;;;;;;;27.08;20.08;;;;;;;;;;1265755;23;20037;-77
2022/11/21 00:28:09;;;;;;;27.48;19.05;;;;;;;;;;1270925;23;20077;-76
2022/11/21 00:28:41;;;;;;;24.45;19.00;;;;;;;;;;1267765;23;20006;-77
2022/11/21 00:29:12;;;;;;;25.08;19.65;;;;;;;;;;1264931;23;20005;-77
2022/11/21 00:29:42;;;;;;;27.10;20.60;;;;;;;;;;1270968;23;20001;-77
2022/11/21 00:30:14;;;;;;;23.80;19.08;;;;;;;;;;1271344;23;20701;-77
2022/11/21 00:30:45;;;;;;;23.58;18.48;;;;;;;;;;1270476;23;20053;-77
2022/11/21 00:31:23;;;;;;;24.55;19.60;;;;;;;;;;1264494;23;20009;-78
2022/11/21 00:31:54;;;;;;;28.48;20.60;;;;;;;;;;1264844;23;20028;-76
2022/11/21 00:32:25;;;;;;;29.08;21.88;;;;;;;;;;1266054;23;20005;-77
2022/11/21 00:32:57;;;;;;;25.98;20.88;;;;;;;;;;1264619;23;20010;-77
2022/11/21 00:33:28;;;;;;;25.92;19.90;;;;;;;;;;1264506;23;20008;-77
2022/11/21 00:33:59;;;;;;;26.52;20.33;;;;;;;;;;1263406;23;20129;-77
2022/11/21 00:34:30;;;;;;;30.48;22.20;;;;;;;;;;1270491;23;20096;-77
2022/11/21 00:35:01;;;;;;;26.60;19.55;;;;;;;;;;1270725;23;20025;-76
2022/11/21 00:35:32;;;;;;;27.85;21.48;;;;;;;;;;1270053;23;20009;-78
2022/11/21 00:36:07;;;;;;;26.00;19.70;;;;;;;;;;1264596;23;19990;-77
2022/11/21 00:36:38;;;;;;;27.55;19.73;;;;;;;;;;1264662;23;20429;-78
2022/11/21 00:37:09;;;;;;;24.52;18.27;;;;;;;;;;1270925;23;20426;-77
2022/11/21 00:37:40;;;;;;;25.52;19.13;;;;;;;;;;1270504;23;20009;-78
2022/11/21 00:38:11;;;;;;;27.02;19.42;;;;;;;;;;1270510;23;20004;-78
2022/11/21 00:38:42;;;;;;;29.60;22.38;;;;;;;;;;1263112;23;20415;-78
2022/11/21 00:39:13;;;;;;;28.10;20.42;;;;;;;;;;1270559;23;20076;-77
2022/11/21 00:39:44;;;;;;;24.67;19.63;;;;;;;;;;1270494;23;20005;-78
2022/11/21 00:40:15;;;;;;;26.35;21.25;;;;;;;;;;1270599;23;20001;-78
2022/11/21 00:40:46;;;;;;;26.90;21.83;;;;;;;;;;1264434;23;20427;-78
2022/11/21 00:41:17;;;;;;;30.13;22.33;;;;;;;;;;1265040;23;20004;-78
2022/11/21 00:41:48;;;;;;;29.35;22.52;;;;;;;;;;1264701;23;20006;-77
2022/11/21 00:42:19;;;;;;;28.73;22.38;;;;;;;;;;1258574;23;20014;-78
2022/11/21 00:42:49;;;;;;;25.92;20.73;;;;;;;;;;1264701;23;20124;-78
2022/11/21 00:43:20;;;;;;;27.15;20.77;;;;;;;;;;1264548;23;20577;-78
2022/11/21 00:43:51;;;;;;;28.15;20.40;;;;;;;;;;1256622;23;20097;-77
2022/11/21 00:44:22;;;;;;;27.27;19.70;;;;;;;;;;1258234;23;20006;-77
2022/11/21 00:44:53;;;;;;;28.83;20.92;;;;;;;;;;1259074;23;20494;-78
2022/11/21 00:45:24;;;;;;;23.77;18.80;;;;;;;;;;1258591;23;20002;-79
2022/11/21 00:45:55;;;;;;;26.00;20.92;;;;;;;;;;1258732;23;20006;-79
2022/11/21 00:46:27;;;;;;;26.42;20.95;;;;;;;;;;1258648;23;20446;-78
2022/11/21 00:46:58;;;;;;;25.92;21.50;;;;;;;;;;1265418;23;20073;-78
2022/11/21 00:47:29;;;;;;;26.70;20.10;;;;;;;;;;1264987;23;20033;-78
2022/11/21 00:48:00;;;;;;;22.90;20.10;;;;;;;;;;1264492;23;20009;-78
2022/11/21 00:48:31;;;;;;;26.63;19.25;;;;;;;;;;1258205;23;20490;-78
2022/11/21 00:49:02;;;;;;;23.05;17.27;;;;;;;;;;1257163;23;20366;-80
2022/11/21 00:49:33;;;;;;;25.75;19.27;;;;;;;;;;1264231;23;20006;-79
2022/11/21 00:50:06;;;;;;;24.42;18.77;;;;;;;;;;1264804;23;20002;-79
2022/11/21 00:50:36;;;;;;;23.70;19.65;;;;;;;;;;1264829;23;20006;-79
2022/11/21 00:51:07;;;;;;;25.50;20.67;;;;;;;;;;1269854;23;20006;-77
2022/11/21 00:51:38;;;;;;;26.13;20.90;;;;;;;;;;1264504;23;20092;-78
2022/11/21 00:52:09;;;;;;;29.20;20.42;;;;;;;;;;1270441;23;20056;-79
2022/11/21 00:52:40;;;;;;;23.08;17.67;;;;;;;;;;1270293;23;20012;-78
2022/11/21 00:53:11;;;;;;;23.95;19.25;;;;;;;;;;1270749;23;20032;-78
2022/11/21 00:53:42;;;;;;;26.20;21.05;;;;;;;;;;1267801;23;20389;-78
2022/11/21 00:54:13;;;;;;;29.27;21.80;;;;;;;;;;1270114;23;20557;-77
2022/11/21 00:54:44;;;;;;;28.08;22.27;;;;;;;;;;1270103;23;20081;-77
2022/11/21 00:55:15;;;;;;;24.40;20.13;;;;;;;;;;1270545;23;20112;-77
2022/11/21 00:55:46;;;;;;;25.98;20.48;;;;;;;;;;1270047;23;20005;-77
2022/11/21 00:56:17;;;;;;;28.42;21.77;;;;;;;;;;1270831;23;20005;-77
2022/11/21 00:56:48;;;;;;;23.23;17.52;;;;;;;;;;1270173;23;20333;-77
2022/11/21 00:57:19;;;;;;;21.77;18.33;;;;;;;;;;1270659;23;20004;-77
2022/11/21 00:57:50;;;;;;;26.92;20.63;;;;;;;;;;1270245;23;20005;-77
2022/11/21 00:58:21;;;;;;;24.52;17.45;;;;;;;;;;1270380;23;20005;-78
2022/11/21 00:58:52;;;;;;;24.08;19.40;;;;;;;;;;1268867;23;20496;-77
2022/11/21 00:59:23;;;;;;;27.35;20.00;;;;;;;;;;1270454;23;20001;-77
2022/11/21 00:59:54;;;;;;;27.40;22.88;;;;;;;;;;1270319;23;20006;-78
2022/11/21 01:00:25;;;;;;;25.67;20.08;;;;;;;;;;1270374;23;20018;-78
2022/11/21 01:01:06;;;;;;;26.40;21.25;;;;;;;;;;1270608;23;20006;-79
2022/11/21 01:01:37;;;;;;;24.85;18.85;;;;;;;;;;1270708;23;20072;-78
2022/11/21 01:02:08;;;;;;;25.08;19.02;;;;;;;;;;1267998;23;20061;-79
2022/11/21 01:02:39;;;;;;;25.27;19.88;;;;;;;;;;1262098;23;20040;-78
2022/11/21 01:03:10;;;;;;;23.52;19.17;;;;;;;;;;1270357;23;20020;-78
2022/11/21 01:03:41;;;;;;;26.77;20.48;;;;;;;;;;1270276;23;20410;-78
2022/11/21 01:04:12;;;;;;;26.42;19.13;;;;;;;;;;1270184;23;20000;-79
2022/11/21 01:04:43;;;;;;;23.48;18.40;;;;;;;;;;1270896;23;20004;-78
2022/11/21 01:05:14;;;;;;;24.90;19.98;;;;;;;;;;1276780;23;19997;-78
2022/11/21 01:05:45;;;;;;;22.08;17.90;;;;;;;;;;1270094;23;20092;-78
2022/11/21 01:06:16;;;;;;;25.30;19.20;;;;;;;;;;1270252;23;19993;-78
2022/11/21 01:06:47;;;;;;;28.65;22.67;;;;;;;;;;1264527;23;20009;-78
2022/11/21 01:07:18;;;;;;;25.77;20.02;;;;;;;;;;1264342;23;19994;-78
2022/11/21 01:07:49;;;;;;;22.67;18.08;;;;;;;;;;1263823;23;20442;-79
2022/11/21 01:08:20;;;;;;;25.95;21.25;;;;;;;;;;1257912;23;20104;-77
2022/11/21 01:08:51;;;;;;;27.90;21.48;;;;;;;;;;1258478;23;19994;-78
2022/11/21 01:09:22;;;;;;;25.15;20.77;;;;;;;;;;1263942;23;20604;-78
2022/11/21 01:09:53;;;;;;;25.88;21.15;;;;;;;;;;1264870;23;20005;-77
2022/11/21 01:10:24;;;;;;;23.13;18.33;;;;;;;;;;1270127;23;20005;-77
2022/11/21 01:10:55;;;;;;;24.52;18.05;;;;;;;;;;1270399;23;20419;-78
2022/11/21 01:11:26;;;;;;;27.45;21.38;;;;;;;;;;1269813;23;20056;-78
2022/11/21 01:11:57;;;;;;;23.67;18.35;;;;;;;;;;1270465;23;20021;-77
2022/11/21 01:12:27;;;;;;;23.10;17.88;;;;;;;;;;1269442;23;20009;-78
2022/11/21 01:12:58;;;;;;;26.40;20.20;;;;;;;;;;1264797;23;20028;-77
2022/11/21 01:13:29;;;;;;;24.58;19.23;;;;;;;;;;1269960;23;20004;-77
2022/11/21 01:14:00;;;;;;;23.75;18.60;;;;;;;;;;1270202;23;20006;-78
2022/11/21 01:14:31;;;;;;;25.58;18.73;;;;;;;;;;1270195;23;20212;-77
2022/11/21 01:15:02;;;;;;;25.63;19.20;;;;;;;;;;1270400;23;20005;-77
2022/11/21 01:15:33;;;;;;;21.85;17.90;;;;;;;;;;1270266;23;20357;-78
2022/11/21 01:16:08;;;;;;;25.55;19.23;;;;;;;;;;1270391;23;20329;-79
2022/11/21 01:16:39;;;;;;;26.63;21.00;;;;;;;;;;1270104;23;20005;-78
2022/11/21 01:17:10;;;;;;;25.92;19.27;;;;;;;;;;1270348;23;20006;-78
2022/11/21 01:17:41;;;;;;;23.77;18.58;;;;;;;;;;1270177;23;20108;-77
2022/11/21 01:18:12;;;;;;;23.40;18.88;;;;;;;;;;1269908;23;20013;-78
2022/11/21 01:18:44;;;;;;;24.33;18.92;;;;;;;;;;1264768;23;20081;-78
2022/11/21 01:19:15;;;;;;;23.35;18.33;;;;;;;;;;1270608;23;20607;-79
2022/11/21 01:19:46;;;;;;;25.80;22.00;;;;;;;;;;1264559;23;20867;-79
2022/11/21 01:20:17;;;;;;;22.90;18.45;;;;;;;;;;1270721;23;20001;-78
2022/11/21 01:20:47;;;;;;;21.65;16.42;;;;;;;;;;1270185;23;20002;-78
2022/11/21 01:21:20;;;;;;;18.77;15.15;;;;;;;;;;1270793;23;20002;-78
2022/11/21 01:21:51;;;;;;;23.92;17.92;;;;;;;;;;1270794;23;20017;-79
2022/11/21 01:22:22;;;;;;;19.95;15.43;;;;;;;;;;1270372;23;20033;-78
2022/11/21 01:22:53;;;;;;;25.45;18.30;;;;;;;;;;1264294;23;20974;-78
2022/11/21 01:23:24;;;;;;;22.23;17.42;;;;;;;;;;1264072;23;20034;-78
2022/11/21 01:23:55;;;;;;;21.30;16.70;;;;;;;;;;1264232;23;19998;-78
2022/11/21 01:24:26;;;;;;;19.10;15.15;;;;;;;;;;1257864;23;20026;-77
2022/11/21 01:24:57;;;;;;;22.23;18.25;;;;;;;;;;1258584;23;20422;-78
2022/11/21 01:25:28;;;;;;;23.85;18.42;;;;;;;;;;1258396;23;20532;-77
2022/11/21 01:26:05;;;;;;;22.13;17.90;;;;;;;;;;1258725;23;20097;-77
2022/11/21 01:26:36;;;;;;;23.42;17.95;;;;;;;;;;1264357;23;20053;-76
2022/11/21 01:27:07;;;;;;;24.13;18.73;;;;;;;;;;1265395;23;19998;-78
2022/11/21 01:27:38;;;;;;;20.80;17.35;;;;;;;;;;1264315;23;19998;-77
2022/11/21 01:28:09;;;;;;;24.23;19.48;;;;;;;;;;1264211;23;20423;-78
2022/11/21 01:28:40;;;;;;;24.83;19.63;;;;;;;;;;1264489;23;20029;-78
2022/11/21 01:29:11;;;;;;;22.95;17.80;;;;;;;;;;1270255;23;20120;-77
2022/11/21 01:29:42;;;;;;;20.92;15.90;;;;;;;;;;1270677;23;20484;-77
2022/11/21 01:30:14;;;;;;;21.20;17.48;;;;;;;;;;1270537;23;19993;-78
2022/11/21 01:30:45;;;;;;;23.33;17.55;;;;;;;;;;1276747;23;20001;-79
2022/11/21 01:31:18;;;;;;;20.30;15.32;;;;;;;;;;1269884;23;20088;-78
2022/11/21 01:31:49;;;;;;;22.88;17.08;;;;;;;;;;1270118;23;20418;-78
2022/11/21 01:32:20;;;;;;;25.13;19.65;;;;;;;;;;1263832;23;20626;-78
2022/11/21 01:32:51;;;;;;;27.23;19.50;;;;;;;;;;1265231;23;20725;-78
2022/11/21 01:33:22;;;;;;;26.40;19.60;;;;;;;;;;1263875;23;20077;-77
2022/11/21 01:33:53;;;;;;;20.25;16.63;;;;;;;;;;1264612;23;19998;-77
2022/11/21 01:34:24;;;;;;;22.42;17.70;;;;;;;;;;1269921;23;20052;-77
2022/11/21 01:34:55;;;;;;;23.80;17.15;;;;;;;;;;1270843;23;20049;-77
2022/11/21 01:35:26;;;;;;;24.08;18.00;;;;;;;;;;1269898;23;20346;-78
2022/11/21 01:35:57;;;;;;;23.52;18.77;;;;;;;;;;1270302;23;20502;-78
2022/11/21 01:36:30;;;;;;;23.65;17.25;;;;;;;;;;1270141;23;20451;-78
2022/11/21 01:37:01;;;;;;;19.92;15.35;;;;;;;;;;1264746;23;20002;-78
2022/11/21 01:37:32;;;;;;;21.90;17.52;;;;;;;;;;1264309;23;20056;-77
2022/11/21 01:38:03;;;;;;;22.88;17.85;;;;;;;;;;1264743;23;19994;-77
2022/11/21 01:38:34;;;;;;;23.77;18.48;;;;;;;;;;1265033;23;20426;-78
2022/11/21 01:39:05;;;;;;;22.65;17.73;;;;;;;;;;1270898;23;20418;-77
2022/11/21 01:39:36;;;;;;;22.00;18.52;;;;;;;;;;1277008;23;20072;-78
2022/11/21 01:40:07;;;;;;;23.27;18.50;;;;;;;;;;1270402;23;20008;-77
2022/11/21 01:40:39;;;;;;;22.42;16.95;;;;;;;;;;1270840;23;20334;-77
2022/11/21 01:41:11;;;;;;;23.50;18.52;;;;;;;;;;1270665;23;20392;-78
2022/11/21 01:41:43;;;;;;;23.88;19.48;;;;;;;;;;1271623;23;20002;-78
2022/11/21 01:42:14;;;;;;;21.70;17.05;;;;;;;;;;1270216;23;20335;-78
2022/11/21 01:43:09;;;;;;;20.75;16.45;;;;;;;;;;1264452;23;20458;-78
2022/11/21 01:43:40;;;;;;;23.40;19.00;;;;;;;;;;1264538;23;20005;-78
2022/11/21 01:44:24;;;;;;;23.60;18.52;;;;;;;;;;1269514;23;20008;-78
2022/11/21 01:44:55;;;;;;;25.30;19.42;;;;;;;;;;1264586;23;20056;-78
2022/11/21 01:45:45;;;;;;;21.95;15.57;;;;;;;;;;1264119;23;20377;-78
2022/11/21 01:46:17;;;;;;;25.80;19.08;;;;;;;;;;1270467;23;20001;-77
2022/11/21 01:46:48;;;;;;;25.10;18.88;;;;;;;;;;1270763;23;20017;-77
2022/11/21 01:47:21;;;;;;;23.98;19.02;;;;;;;;;;1270220;23;20025;-78
2022/11/21 01:47:52;;;;;;;22.65;18.00;;;;;;;;;;1271882;23;20005;-78
2022/11/21 01:48:46;;;;;;;26.52;19.80;;;;;;;;;;1270082;23;20081;-78
2022/11/21 01:49:25;;;;;;;24.77;18.25;;;;;;;;;;1256535;23;20025;-77
2022/11/21 01:49:56;;;;;;;23.17;17.50;;;;;;;;;;1264999;23;20081;-77
2022/11/21 01:50:27;;;;;;;23.58;16.88;;;;;;;;;;1264037;23;20006;-77
2022/11/21 01:51:00;;;;;;;24.77;19.08;;;;;;;;;;1266673;23;20056;-77
2022/11/21 01:51:50;;;;;;;19.98;17.02;;;;;;;;;;1270449;23;20107;-77
2022/11/21 01:52:25;;;;;;;19.98;16.40;;;;;;;;;;1269989;23;20093;-78
2022/11/21 01:52:56;;;;;;;22.77;17.45;;;;;;;;;;1270631;23;20016;-78
2022/11/21 01:53:27;;;;;;;20.40;15.07;;;;;;;;;;1265388;23;20005;-78
2022/11/21 01:54:02;;;;;;;22.48;17.73;;;;;;;;;;1265659;23;20076;-77
2022/11/21 01:54:52;;;;;;;24.67;18.80;;;;;;;;;;1270491;23;20625;-77
2022/11/21 01:55:23;;;;;;;20.60;16.02;;;;;;;;;;1270235;23;20001;-78
2022/11/21 01:55:54;;;;;;;22.23;17.17;;;;;;;;;;1270426;23;20006;-79
2022/11/21 01:56:25;;;;;;;21.10;16.95;;;;;;;;;;1266337;23;20338;-77
2022/11/21 01:57:01;;;;;;;25.77;19.35;;;;;;;;;;1265028;23;19998;-78
2022/11/21 01:57:43;;;;;;;24.85;21.35;;;;;;;;;;1272000;23;20081;-77
2022/11/21 01:58:14;;;;;;;22.40;16.00;;;;;;;;;;1277108;23;19993;-77
2022/11/21 01:58:45;;;;;;;23.05;17.58;;;;;;;;;;1270302;23;20372;-77
2022/11/21 01:59:21;;;;;;;23.33;19.08;;;;;;;;;;1270424;23;20339;-76
2022/11/21 01:59:56;;;;;;;24.15;19.02;;;;;;;;;;1264487;23;20005;-78
2022/11/21 02:00:33;;;;;;;25.63;17.83;;;;;;;;;;1266749;23;19998;-78
2022/11/21 02:01:05;;;;;;;25.13;19.15;;;;;;;;;;1264329;23;20002;-79
2022/11/21 02:01:36;;;;;;;20.58;16.00;;;;;;;;;;1261084;23;20073;-79
2022/11/21 02:02:09;;;;;;;22.10;17.40;;;;;;;;;;1264486;23;20662;-79
2022/11/21 02:02:43;;;;;;;21.88;17.35;;;;;;;;;;1264233;23;20492;-79
2022/11/21 02:03:18;;;;;;;24.05;18.98;;;;;;;;;;1258030;23;20433;-78
2022/11/21 02:03:50;;;;;;;25.73;20.00;;;;;;;;;;1260976;23;19994;-79
2022/11/21 02:04:24;;;;;;;24.30;19.83;;;;;;;;;;1266364;23;19994;-78
2022/11/21 02:04:55;;;;;;;28.50;21.40;;;;;;;;;;1266635;23;20069;-79
2022/11/21 02:05:29;;;;;;;22.88;17.73;;;;;;;;;;1270388;23;19998;-77
2022/11/21 02:06:00;;;;;;;22.80;17.45;;;;;;;;;;1264283;23;20002;-77
2022/11/21 02:06:31;;;;;;;22.95;18.15;;;;;;;;;;1265468;23;20018;-77
2022/11/21 02:07:04;;;;;;;26.45;20.38;;;;;;;;;;1270634;23;20084;-78
2022/11/21 02:07:38;;;;;;;24.63;19.27;;;;;;;;;;1270382;23;20019;-78
2022/11/21 02:08:14;;;;;;;24.65;18.70;;;;;;;;;;1270544;23;20076;-77
2022/11/21 02:08:45;;;;;;;24.02;16.50;;;;;;;;;;1273136;23;19998;-78
2022/11/21 02:09:17;;;;;;;22.90;17.58;;;;;;;;;;1270240;23;20012;-77
2022/11/21 02:09:51;;;;;;;23.95;17.38;;;;;;;;;;1264634;23;20350;-77
2022/11/21 02:10:22;;;;;;;21.90;16.88;;;;;;;;;;1264023;23;20006;-78
2022/11/21 02:11:05;;;;;;;24.52;19.73;;;;;;;;;;1265727;23;20118;-78
2022/11/21 02:11:40;;;;;;;23.00;17.88;;;;;;;;;;1270128;23;20412;-78
2022/11/21 02:12:17;;;;;;;24.85;18.38;;;;;;;;;;1268070;23;20002;-78
2022/11/21 02:12:55;;;;;;;27.23;20.27;;;;;;;;;;1270685;23;20369;-78
2022/11/21 02:13:26;;;;;;;25.90;19.10;;;;;;;;;;1270107;23;20012;-78
2022/11/21 02:13:59;;;;;;;22.17;16.85;;;;;;;;;;1270669;23;20459;-78
2022/11/21 02:14:31;;;;;;;23.60;18.50;;;;;;;;;;1270509;23;19994;-78
2022/11/21 02:15:02;;;;;;;22.60;17.05;;;;;;;;;;1264659;23;20177;-78
2022/11/21 02:15:33;;;;;;;21.38;16.60;;;;;;;;;;1265155;23;20006;-78
2022/11/21 02:16:04;;;;;;;20.40;16.17;;;;;;;;;;1270281;23;20306;-79
2022/11/21 02:16:35;;;;;;;23.38;17.52;;;;;;;;;;1270237;23;20087;-78
2022/11/21 02:17:07;;;;;;;26.33;18.92;;;;;;;;;;1270266;23;20041;-78
2022/11/21 02:17:38;;;;;;;26.08;20.33;;;;;;;;;;1264325;23;20001;-78
2022/11/21 02:18:09;;;;;;;24.60;18.35;;;;;;;;;;1264903;23;20400;-78
2022/11/21 02:18:40;;;;;;;26.48;19.25;;;;;;;;;;1270031;23;20100;-78
2022/11/21 02:19:15;;;;;;;25.27;18.77;;;;;;;;;;1270597;23;20005;-77
2022/11/21 02:19:53;;;;;;;28.60;21.63;;;;;;;;;;1268589;23;20005;-77
2022/11/21 02:20:25;;;;;;;26.95;19.98;;;;;;;;;;1264496;23;19998;-79
2022/11/21 02:21:22;;;;;;;28.48;20.73;;;;;;;;;;1264499;23;20069;-78
2022/11/21 02:22:04;;;;;;;28.65;18.45;;;;;;;;;;1263940;23;20006;-77
2022/11/21 02:22:44;;;;;;;25.40;18.70;;;;;;;;;;1265717;23;19994;-77
2022/11/21 02:23:29;;;;;;;24.45;19.02;;;;;;;;;;1264044;23;20009;-78
2022/11/21 02:24:21;;;;;;;28.27;21.15;;;;;;;;;;1270379;23;20046;-77
2022/11/21 02:25:02;;;;;;;27.58;20.30;;;;;;;;;;1270347;23;20468;-77
2022/11/21 02:25:35;;;;;;;21.02;13.98;;;;;;;;;;1270549;23;20009;-77
2022/11/21 02:26:06;;;;;;;18.55;12.25;;;;;;;;;;1270510;23;20142;-78
2022/11/21 02:26:37;;;;;;;17.30;13.63;;;;;;;;;;1273564;23;20004;-78
2022/11/21 02:27:09;;;;;;;18.58;12.90;;;;;;;;;;1276860;23;20003;-77
2022/11/21 02:27:40;;;;;;;20.42;15.30;;;;;;;;;;1270275;23;20014;-77
2022/11/21 02:28:13;;;;;;;28.40;18.75;;;;;;;;;;1270512;23;20006;-78
2022/11/21 02:28:44;;;;;;;25.60;17.48;;;;;;;;;;1270374;23;19998;-78
2022/11/21 02:29:15;;;;;;;20.92;14.70;;;;;;;;;;1271314;23;20009;-77
2022/11/21 02:29:46;;;;;;;28.38;21.65;;;;;;;;;;1270484;23;20088;-77
2022/11/21 02:30:18;;;;;;;24.00;17.85;;;;;;;;;;1270465;23;19997;-77
2022/11/21 02:30:49;;;;;;;21.75;16.23;;;;;;;;;;1264438;23;20052;-77
2022/11/21 02:31:20;;;;;;;19.63;14.40;;;;;;;;;;1264954;23;19998;-77
2022/11/21 02:31:51;;;;;;;22.77;18.05;;;;;;;;;;1264210;23;20066;-77
2022/11/21 02:32:23;;;;;;;21.85;16.30;;;;;;;;;;1264640;23;20082;-78
2022/11/21 02:32:55;;;;;;;20.35;14.85;;;;;;;;;;1270465;23;20469;-78
2022/11/21 02:33:26;;;;;;;24.10;17.38;;;;;;;;;;1270388;23;20081;-77
2022/11/21 02:33:57;;;;;;;23.88;18.13;;;;;;;;;;1270876;23;20009;-77
2022/11/21 02:34:28;;;;;;;21.02;15.90;;;;;;;;;;1270647;23;20005;-77
2022/11/21 02:34:58;;;;;;;22.95;17.40;;;;;;;;;;1277136;23;20005;-78
2022/11/21 02:35:29;;;;;;;26.30;19.13;;;;;;;;;;1276983;23;20001;-78
2022/11/21 02:36:01;;;;;;;25.42;18.52;;;;;;;;;;1277170;23;19997;-77
2022/11/21 02:36:43;;;;;;;27.77;20.20;;;;;;;;;;1270489;23;20010;-77
2022/11/21 02:37:15;;;;;;;27.30;19.85;;;;;;;;;;1270444;23;20416;-78
2022/11/21 02:37:47;;;;;;;26.00;19.33;;;;;;;;;;1264320;23;20013;-77
2022/11/21 02:38:32;;;;;;;26.15;19.48;;;;;;;;;;1267378;23;20002;-78
2022/11/21 02:39:04;;;;;;;25.73;20.25;;;;;;;;;;1270521;23;20756;-77
2022/11/21 02:39:36;;;;;;;26.90;18.60;;;;;;;;;;1267978;23;20041;-76
2022/11/21 02:40:13;;;;;;;23.55;18.30;;;;;;;;;;1270501;23;20017;-77
2022/11/21 02:40:58;;;;;;;26.23;18.33;;;;;;;;;;1270194;23;20001;-78
2022/11/21 02:41:29;;;;;;;27.33;19.95;;;;;;;;;;1270542;23;20009;-77
2022/11/21 02:42:05;;;;;;;23.23;16.70;;;;;;;;;;1265983;23;20006;-78
2022/11/21 02:42:42;;;;;;;24.15;17.70;;;;;;;;;;1270565;23;20006;-76
2022/11/21 02:43:16;;;;;;;25.10;19.35;;;;;;;;;;1267299;23;20075;-78
2022/11/21 02:43:50;;;;;;;23.98;17.85;;;;;;;;;;1264216;23;20002;-78
2022/11/21 02:44:27;;;;;;;20.48;15.90;;;;;;;;;;1267242;23;19994;-78
2022/11/21 02:45:00;;;;;;;25.23;18.63;;;;;;;;;;1266839;23;20112;-77
2022/11/21 02:45:34;;;;;;;27.38;19.77;;;;;;;;;;1270044;23;20098;-78
2022/11/21 02:46:05;;;;;;;21.20;15.13;;;;;;;;;;1270429;23;20072;-79
2022/11/21 02:46:36;;;;;;;23.15;16.85;;;;;;;;;;1270334;23;20005;-78
2022/11/21 02:47:07;;;;;;;23.48;16.23;;;;;;;;;;1270389;23;20515;-78
2022/11/21 02:47:38;;;;;;;25.65;17.25;;;;;;;;;;1270344;23;20500;-76
2022/11/21 02:48:10;;;;;;;31.60;20.23;;;;;;;;;;1269684;23;20044;-77
2022/11/21 02:48:41;;;;;;;28.75;20.20;;;;;;;;;;1270537;23;20005;-77
2022/11/21 02:49:12;;;;;;;26.55;20.52;;;;;;;;;;1270104;23;20020;-78
2022/11/21 02:50:16;;;;;;;26.33;20.98;;;;;;;;;;1270168;23;20010;-76
2022/11/21 02:50:47;;;;;;;26.65;17.33;;;;;;;;;;1245807;23;20015;-78
2022/11/21 02:51:18;;;;;;;28.60;18.52;;;;;;;;;;1246665;23;20003;-78
2022/11/21 02:51:49;;;;;;;33.55;21.77;;;;;;;;;;1260230;23;20186;-78
2022/11/21 02:52:20;;;;;;;24.83;15.70;;;;;;;;;;1264209;23;20006;-78
2022/11/21 02:52:51;;;;;;;24.10;18.15;;;;;;;;;;1264795;23;20485;-78
2022/11/21 02:53:22;;;;;;;25.50;17.98;;;;;;;;;;1270315;23;20114;-78
2022/11/21 02:53:53;;;;;;;25.65;18.45;;;;;;;;;;1270600;23;20002;-77
2022/11/21 02:54:24;;;;;;;26.65;18.80;;;;;;;;;;1269611;23;20031;-77
2022/11/21 02:54:55;;;;;;;24.98;18.92;;;;;;;;;;1270658;23;20077;-77
2022/11/21 02:55:26;;;;;;;25.80;19.00;;;;;;;;;;1270207;23;20004;-78
2022/11/21 02:55:57;;;;;;;27.73;19.95;;;;;;;;;;1270657;23;20001;-76
2022/11/21 02:56:28;;;;;;;26.23;18.83;;;;;;;;;;1270016;23;20005;-78
2022/11/21 02:56:59;;;;;;;30.48;20.40;;;;;;;;;;1270587;23;20001;-77
2022/11/21 02:57:30;;;;;;;26.85;19.73;;;;;;;;;;1270478;23;20635;-77
2022/11/21 02:58:01;;;;;;;25.88;17.33;;;;;;;;;;1270482;23;20008;-78
2022/11/21 02:58:32;;;;;;;19.20;15.10;;;;;;;;;;1270147;23;20001;-78
2022/11/21 02:59:03;;;;;;;24.25;17.60;;;;;;;;;;1270297;23;20006;-77
2022/11/21 02:59:34;;;;;;;27.33;18.77;;;;;;;;;;1269994;23;20005;-78
2022/11/21 03:00:05;;;;;;;24.92;17.88;;;;;;;;;;1270523;23;20006;-78
2022/11/21 03:00:37;;;;;;;25.55;18.75;;;;;;;;;;1270518;23;20018;-78
2022/11/21 03:01:08;;;;;;;26.20;18.98;;;;;;;;;;1270543;23;20009;-78
2022/11/21 03:01:39;;;;;;;26.48;20.00;;;;;;;;;;1270090;23;20002;-77
2022/11/21 03:02:09;;;;;;;23.90;16.55;;;;;;;;;;1270325;23;20008;-77
2022/11/21 03:02:41;;;;;;;26.17;19.23;;;;;;;;;;1270342;23;20085;-78
2022/11/21 03:03:12;;;;;;;25.88;18.98;;;;;;;;;;1270293;23;20008;-78
2022/11/21 03:03:42;;;;;;;25.98;18.83;;;;;;;;;;1270868;23;20338;-78
2022/11/21 03:04:13;;;;;;;27.80;18.42;;;;;;;;;;1276963;23;20008;-77
2022/11/21 03:04:44;;;;;;;25.98;18.00;;;;;;;;;;1270462;23;20009;-77
2022/11/21 03:05:16;;;;;;;21.23;16.08;;;;;;;;;;1270194;23;20417;-78
2022/11/21 03:05:47;;;;;;;23.75;18.63;;;;;;;;;;1264261;23;20009;-77
2022/11/21 03:06:18;;;;;;;23.05;16.45;;;;;;;;;;1264695;23;20081;-77
2022/11/21 03:06:49;;;;;;;25.70;18.63;;;;;;;;;;1270521;23;20013;-77
2022/11/21 03:07:20;;;;;;;23.52;17.73;;;;;;;;;;1270730;23;19999;-78
2022/11/21 03:07:51;;;;;;;24.63;18.08;;;;;;;;;;1277230;23;20001;-77
2022/11/21 03:08:22;;;;;;;21.38;15.93;;;;;;;;;;1270234;23;20009;-77
2022/11/21 03:08:53;;;;;;;22.83;17.17;;;;;;;;;;1270524;23;20006;-79